createdAt,value
2023-03-16T00:00:27.943Z,94988.78
2023-03-16T00:03:19.585Z,94976.97
2023-03-16T00:06:06.113Z,94972.06
2023-03-16T00:08:52.301Z,94992.22
2023-03-16T00:11:38.182Z,95003.00
2023-03-16T00:14:23.973Z,94985.13
2023-03-16T00:17:18.758Z,94988.78
2023-03-16T00:20:07.181Z,94993.41
2023-03-16T00:22:53.362Z,94994.41
2023-03-16T00:25:39.430Z,94994.09
2023-03-16T00:28:26.995Z,94997.19
2023-03-16T00:31:13.693Z,95000.34
2023-03-16T00:34:02.813Z,95004.19
2023-03-16T00:36:48.862Z,95007.66
2023-03-16T00:39:35.849Z,94981.97
2023-03-16T00:42:23.984Z,95021.56
2023-03-16T00:45:10.652Z,95017.59
2023-03-16T00:47:56.853Z,94997.72
2023-03-16T00:50:43.286Z,95022.56
2023-03-16T00:53:29.121Z,95003.34
2023-03-16T00:56:15.843Z,95017.59
2023-03-16T00:59:02.548Z,95014.50
2023-03-16T01:01:48.379Z,95014.13
2023-03-16T01:04:38.112Z,94996.56
2023-03-16T01:07:24.371Z,95002.03
2023-03-16T01:10:10.790Z,95004.34
2023-03-16T01:12:56.844Z,95004.03
2023-03-16T01:15:43.095Z,95008.34
2023-03-16T01:18:30.109Z,95001.91
2023-03-16T01:21:16.700Z,95018.09
2023-03-16T01:24:04.175Z,95013.97
2023-03-16T01:26:49.891Z,95001.56
2023-03-16T01:29:35.948Z,95002.19
2023-03-16T01:32:22.875Z,95013.97
2023-03-16T01:35:09.522Z,94987.81
2023-03-16T01:37:58.564Z,95033.22
2023-03-16T01:40:47.672Z,95022.78
2023-03-16T01:43:34.832Z,95010.69
2023-03-16T01:46:26.728Z,95009.72
2023-03-16T01:49:36.012Z,95016.81
2023-03-16T01:52:28.229Z,95026.75
2023-03-16T01:55:15.074Z,95036.53
2023-03-16T01:58:01.804Z,95010.19
2023-03-16T02:00:48.314Z,95021.97
2023-03-16T02:03:41.845Z,95037.53
2023-03-16T02:06:36.450Z,95054.78
2023-03-16T02:09:24.303Z,95017.31
2023-03-16T02:12:17.949Z,95049.31
2023-03-16T02:15:08.046Z,95053.81
2023-03-16T02:17:54.471Z,95033.72
2023-03-16T02:21:00.296Z,95016.81
2023-03-16T02:23:47.382Z,95049.13
2023-03-16T02:26:55.126Z,95061.22
2023-03-16T02:29:53.782Z,95035.88
2023-03-16T02:32:40.557Z,95064.56
2023-03-16T02:35:26.464Z,95051.47
2023-03-16T02:38:12.794Z,95065.34
2023-03-16T02:41:17.378Z,95077.66
2023-03-16T02:44:24.466Z,95078.00
2023-03-16T02:47:16.873Z,95075.84
2023-03-16T02:50:06.671Z,95095.53
2023-03-16T02:52:52.564Z,95095.88
2023-03-16T02:55:38.446Z,95082.94
2023-03-16T02:58:24.330Z,95084.44
2023-03-16T03:01:10.114Z,95101.00
2023-03-16T03:03:56.354Z,95086.78
2023-03-16T03:06:44.536Z,95108.81
2023-03-16T03:09:35.028Z,95102.19
2023-03-16T03:12:21.048Z,95108.31
2023-03-16T03:15:07.515Z,95105.81
2023-03-16T03:18:01.290Z,95101.53
2023-03-16T03:20:49.319Z,95113.44
2023-03-16T03:23:36.187Z,95112.13
2023-03-16T03:26:22.079Z,95100.03
2023-03-16T03:29:07.935Z,95131.84
2023-03-16T03:31:53.770Z,95156.53
2023-03-16T03:34:40.138Z,95101.19
2023-03-16T03:37:26.026Z,95147.25
2023-03-16T03:40:15.561Z,95138.97
2023-03-16T03:43:05.229Z,95147.78
2023-03-16T03:45:58.036Z,95141.47
2023-03-16T03:48:43.899Z,95161.03
2023-03-16T03:51:31.115Z,95154.56
2023-03-16T03:54:23.499Z,95169.81
2023-03-16T03:57:17.513Z,95183.56
2023-03-16T04:00:12.224Z,95177.06
2023-03-16T04:03:03.535Z,95177.78
2023-03-16T04:05:56.398Z,95180.06
2023-03-16T04:08:42.732Z,95174.78
2023-03-16T04:11:32.441Z,95188.41
2023-03-16T04:14:18.303Z,95184.41
2023-03-16T04:17:04.806Z,95197.66
2023-03-16T04:19:54.067Z,95168.31
2023-03-16T04:22:42.489Z,95209.28
2023-03-16T04:25:30.687Z,95184.41
2023-03-16T04:28:18.189Z,95182.53
2023-03-16T04:31:10.194Z,95205.28
2023-03-16T04:34:02.448Z,95212.06
2023-03-16T04:36:49.026Z,95214.72
2023-03-16T04:39:35.471Z,95236.78
2023-03-16T04:42:21.887Z,95239.59
2023-03-16T04:45:08.779Z,95220.34
2023-03-16T04:47:54.966Z,95234.16
2023-03-16T04:50:41.261Z,95214.06
2023-03-16T04:53:28.038Z,95227.66
2023-03-16T04:56:18.817Z,95221.34
2023-03-16T04:59:10.878Z,95224.34
2023-03-16T05:02:20.732Z,95224.19
2023-03-16T05:05:09.557Z,95214.72
2023-03-16T05:07:57.705Z,95198.31
2023-03-16T05:10:48.232Z,95245.34
2023-03-16T05:13:34.948Z,95251.31
2023-03-16T05:16:21.200Z,95212.53
2023-03-16T05:19:07.061Z,95247.72
2023-03-16T05:21:55.886Z,95249.25
2023-03-16T05:24:42.185Z,95257.63
2023-03-16T05:27:27.981Z,95256.66
2023-03-16T05:30:16.312Z,95258.34
2023-03-16T05:33:03.149Z,95270.28
2023-03-16T05:35:51.375Z,95278.47
2023-03-16T05:38:47.689Z,95277.38
2023-03-16T05:41:44.506Z,95271.47
2023-03-16T05:44:50.361Z,95282.56
2023-03-16T05:47:56.488Z,95289.00
2023-03-16T05:50:43.467Z,95284.25
2023-03-16T05:53:32.177Z,95296.97
2023-03-16T05:56:28.183Z,95303.78
2023-03-16T05:59:14.906Z,95283.91
2023-03-16T06:02:01.561Z,95300.13
2023-03-16T06:04:47.627Z,95297.84
2023-03-16T06:07:34.316Z,95288.19
2023-03-16T06:10:20.591Z,95316.72
2023-03-16T06:13:07.369Z,95308.72
2023-03-16T06:15:53.290Z,95310.28
2023-03-16T06:18:41.230Z,95323.06
2023-03-16T16:23:53.542Z,95634.31
2023-03-16T16:26:51.976Z,95636.66
2023-03-16T16:29:40.350Z,95653.31
2023-03-16T16:32:26.469Z,95635.50
2023-03-16T16:35:17.669Z,95650.31
2023-03-16T16:38:04.271Z,95659.78
2023-03-16T16:40:51.330Z,95636.16
2023-03-16T16:43:41.573Z,95666.25
2023-03-16T16:46:28.782Z,95666.25
2023-03-16T16:49:16.758Z,95674.06
2023-03-16T16:52:03.762Z,95666.06
2023-03-16T16:54:50.082Z,95673.94
2023-03-16T16:57:36.450Z,95676.16
2023-03-16T17:00:24.777Z,95681.63
2023-03-16T17:03:27.137Z,95690.09
2023-03-16T17:06:18.316Z,95708.19
2023-03-16T17:09:05.489Z,95689.06
2023-03-16T17:11:52.020Z,95697.38
2023-03-16T17:14:37.730Z,95690.03
2023-03-16T17:17:23.734Z,95700.00
2023-03-16T17:20:15.875Z,95714.75
2023-03-16T17:23:01.888Z,95720.84
2023-03-16T17:25:49.006Z,95699.19
2023-03-16T17:28:39.800Z,95721.16
2023-03-16T17:31:31.201Z,95733.75
2023-03-16T17:34:19.566Z,95739.63
2023-03-16T17:37:10.296Z,95747.91
2023-03-16T17:39:57.580Z,95740.22
2023-03-16T17:42:45.150Z,95731.81
2023-03-16T17:45:31.576Z,95725.34
2023-03-16T17:48:20.265Z,95736.72
2023-03-16T17:51:09.042Z,95727.41
2023-03-16T17:53:56.015Z,95727.41
2023-03-16T17:56:42.585Z,95746.59
2023-03-16T17:59:28.903Z,95744.81
2023-03-16T18:02:30.168Z,95739.50
2023-03-16T18:05:28.993Z,95745.50
2023-03-16T18:08:22.664Z,95755.47
2023-03-16T18:11:36.094Z,95767.44
2023-03-16T18:14:37.207Z,95766.38
2023-03-16T18:17:29.871Z,95766.72
2023-03-16T18:20:27.944Z,95771.88
2023-03-16T18:23:19.588Z,95772.78
2023-03-16T18:26:07.014Z,95769.50
2023-03-16T18:28:53.577Z,95778.38
2023-03-16T18:31:39.962Z,95789.84
2023-03-16T18:34:28.134Z,95782.94
2023-03-16T18:37:21.362Z,95787.50
2023-03-16T18:40:12.972Z,95793.78
2023-03-16T18:42:59.436Z,95800.25
2023-03-16T18:45:46.660Z,95810.66
2023-03-16T18:48:35.108Z,95794.34
2023-03-16T18:51:22.280Z,95796.84
2023-03-16T18:54:22.189Z,95817.66
2023-03-16T18:57:28.553Z,95818.50
2023-03-16T19:00:20.568Z,95803.56
2023-03-16T19:03:10.335Z,95807.19
2023-03-16T19:05:58.304Z,95813.19
2023-03-16T19:08:44.491Z,95804.53
2023-03-16T19:11:32.448Z,95804.31
2023-03-16T19:14:18.981Z,95803.78
2023-03-16T19:17:06.689Z,95793.75
2023-03-16T19:19:54.966Z,95800.66
2023-03-16T19:22:48.124Z,95791.78
2023-03-16T19:25:39.588Z,95804.16
2023-03-16T19:28:29.299Z,95804.91
2023-03-16T19:31:15.859Z,95813.81
2023-03-16T19:34:02.385Z,95802.50
2023-03-16T19:36:49.287Z,95797.09
2023-03-16T19:39:36.049Z,95811.28
2023-03-16T19:42:32.153Z,95822.00
2023-03-16T19:45:34.426Z,95818.25
2023-03-16T19:48:28.748Z,95805.84
2023-03-16T19:51:20.132Z,95807.63
2023-03-16T19:54:07.402Z,95815.47
2023-03-16T19:56:56.228Z,95834.06
2023-03-16T19:59:46.269Z,95830.56
2023-03-16T20:02:40.748Z,95830.56
2023-03-16T20:05:29.971Z,95833.72
2023-03-16T20:08:26.027Z,95832.91
2023-03-16T20:11:18.900Z,95834.25
2023-03-16T20:14:04.914Z,95828.00
2023-03-16T20:16:51.366Z,95816.66
2023-03-16T20:19:37.601Z,95838.88
2023-03-16T20:22:28.579Z,95841.31
2023-03-16T20:25:14.568Z,95843.81
2023-03-16T20:28:02.278Z,95831.25
2023-03-16T20:30:49.141Z,95849.25
2023-03-16T20:33:35.070Z,95840.59
2023-03-16T20:36:22.155Z,95841.25
2023-03-16T20:39:08.210Z,95841.53
2023-03-16T20:41:54.512Z,95838.50
2023-03-16T20:44:41.139Z,95838.66
2023-03-16T20:47:27.852Z,95835.28
2023-03-16T20:50:19.989Z,95839.28
2023-03-16T20:53:06.373Z,95832.53
2023-03-16T20:55:52.881Z,95831.81
2023-03-16T20:58:39.468Z,95820.53
2023-03-16T21:01:26.767Z,95828.78
2023-03-16T21:04:22.474Z,95822.19
2023-03-16T21:07:09.024Z,95816.06
2023-03-16T21:09:55.050Z,95830.81
2023-03-16T21:12:45.993Z,95821.28
2023-03-16T21:15:33.591Z,95821.28
2023-03-16T21:18:21.593Z,95816.88
2023-03-16T21:21:14.006Z,95821.41
2023-03-16T21:24:03.277Z,95822.78
2023-03-16T21:26:49.436Z,95821.69
2023-03-16T21:29:36.912Z,95823.72
2023-03-16T21:32:26.564Z,95799.22
2023-03-16T21:35:14.831Z,95826.38
2023-03-16T21:38:14.264Z,95819.69
2023-03-16T21:41:00.983Z,95819.69
2023-03-16T21:43:47.263Z,95816.28
2023-03-16T21:46:33.767Z,95825.44
2023-03-16T21:49:19.917Z,95810.91
2023-03-16T21:52:16.228Z,95805.91
2023-03-16T21:55:02.581Z,95786.84
2023-03-16T21:57:49.445Z,95801.81
2023-03-16T22:00:35.702Z,95794.88
2023-03-16T22:03:37.815Z,95801.72
2023-03-16T22:06:33.900Z,95803.09
2023-03-16T22:09:21.036Z,95791.66
2023-03-16T22:12:09.532Z,95795.22
2023-03-16T22:14:55.499Z,95786.94
2023-03-16T22:17:41.834Z,95799.91
2023-03-16T22:20:28.211Z,95801.38
2023-03-16T22:23:35.044Z,95816.28
2023-03-16T22:26:22.634Z,95796.13
2023-03-16T22:29:44.211Z,95804.91
2023-03-16T22:32:30.809Z,95808.34
2023-03-16T22:35:27.602Z,95814.31
2023-03-16T22:38:14.556Z,95808.03
2023-03-16T22:41:00.768Z,95806.34
2023-03-16T22:43:46.779Z,95806.06
2023-03-16T22:46:32.749Z,95810.69
2023-03-16T22:49:36.873Z,95805.09
2023-03-16T22:52:27.926Z,95808.25
2023-03-16T22:55:24.027Z,95798.84
2023-03-16T22:58:18.977Z,95826.47
2023-03-16T23:01:42.671Z,95803.31
2023-03-16T23:04:32.745Z,95819.84
2023-03-16T23:07:19.784Z,95808.88
2023-03-16T23:10:06.203Z,95831.53
2023-03-16T23:12:52.486Z,95833.47
2023-03-16T23:15:38.414Z,95821.13
2023-03-16T23:18:25.906Z,95826.72
2023-03-16T23:21:15.323Z,95842.13
2023-03-16T23:24:04.260Z,95830.41
2023-03-16T23:26:51.972Z,95826.34
2023-03-16T23:29:37.778Z,95815.25
2023-03-16T23:32:23.785Z,95820.41
2023-03-16T23:35:21.914Z,95830.41
2023-03-16T23:38:08.365Z,95834.31
2023-03-16T23:40:54.519Z,95836.22
2023-03-16T23:43:41.770Z,95840.81
2023-03-16T23:46:29.395Z,95831.06
2023-03-16T23:49:27.331Z,95836.13
2023-03-16T23:52:14.545Z,95839.63
2023-03-16T23:55:01.437Z,95840.81
2023-03-16T23:57:47.373Z,95824.50
